sensor_id;sensor_type;location;lat;lon;timestamp;P1;durP1;ratioP1;P2;durP2;ratioP2
24034;SDS011;12242;50.952;4.678;2022-08-03T00:02:19;561.72;;;519.30;;
24034;SDS011;12242;50.952;4.678;2022-08-03T00:04:47;575.40;;;531.72;;
24034;SDS011;12242;50.952;4.678;2022-08-03T00:07:16;573.70;;;528.25;;
24034;SDS011;12242;50.952;4.678;2022-08-03T00:09:43;583.95;;;538.47;;
24034;SDS011;12242;50.952;4.678;2022-08-03T00:12:11;558.75;;;515.20;;
24034;SDS011;12242;50.952;4.678;2022-08-03T00:14:39;565.35;;;521.15;;
24034;SDS011;12242;50.952;4.678;2022-08-03T00:17:07;593.35;;;547.53;;
24034;SDS011;12242;50.952;4.678;2022-08-03T00:19:36;564.80;;;520.65;;
24034;SDS011;12242;50.952;4.678;2022-08-03T00:22:04;584.13;;;538.85;;
24034;SDS011;12242;50.952;4.678;2022-08-03T00:24:31;573.67;;;529.13;;
24034;SDS011;12242;50.952;4.678;2022-08-03T00:26:59;572.67;;;528.75;;
24034;SDS011;12242;50.952;4.678;2022-08-03T00:29:26;586.58;;;541.42;;
24034;SDS011;12242;50.952;4.678;2022-08-03T00:31:54;546.72;;;503.60;;
24034;SDS011;12242;50.952;4.678;2022-08-03T00:34:26;582.75;;;536.75;;
24034;SDS011;12242;50.952;4.678;2022-08-03T00:37:17;558.28;;;513.80;;
24034;SDS011;12242;50.952;4.678;2022-08-03T00:39:46;549.30;;;506.30;;
24034;SDS011;12242;50.952;4.678;2022-08-03T00:42:14;532.75;;;490.92;;
24034;SDS011;12242;50.952;4.678;2022-08-03T00:44:42;549.78;;;505.88;;
24034;SDS011;12242;50.952;4.678;2022-08-03T00:47:11;558.20;;;514.30;;
24034;SDS011;12242;50.952;4.678;2022-08-03T00:49:43;544.20;;;501.73;;
24034;SDS011;12242;50.952;4.678;2022-08-03T00:52:13;562.08;;;517.90;;
24034;SDS011;12242;50.952;4.678;2022-08-03T00:54:42;558.60;;;514.58;;
24034;SDS011;12242;50.952;4.678;2022-08-03T00:57:12;550.97;;;507.70;;
24034;SDS011;12242;50.952;4.678;2022-08-03T00:59:41;535.58;;;494.17;;
24034;SDS011;12242;50.952;4.678;2022-08-03T01:02:09;548.47;;;505.73;;
24034;SDS011;12242;50.952;4.678;2022-08-03T01:04:36;552.85;;;511.35;;
24034;SDS011;12242;50.952;4.678;2022-08-03T01:07:11;578.97;;;534.90;;
24034;SDS011;12242;50.952;4.678;2022-08-03T01:20:53;555.60;;;512.78;;
24034;SDS011;12242;50.952;4.678;2022-08-03T01:26:09;539.50;;;498.60;;
24034;SDS011;12242;50.952;4.678;2022-08-03T01:31:31;519.50;;;480.38;;
24034;SDS011;12242;50.952;4.678;2022-08-03T01:34:45;554.53;;;513.38;;
24034;SDS011;12242;50.952;4.678;2022-08-03T01:37:20;574.35;;;530.50;;
24034;SDS011;12242;50.952;4.678;2022-08-03T01:39:53;536.30;;;496.85;;
24034;SDS011;12242;50.952;4.678;2022-08-03T01:42:23;568.30;;;527.28;;
24034;SDS011;12242;50.952;4.678;2022-08-03T01:44:53;564.90;;;523.33;;
24034;SDS011;12242;50.952;4.678;2022-08-03T01:47:23;589.90;;;546.42;;
24034;SDS011;12242;50.952;4.678;2022-08-03T01:49:52;602.80;;;557.97;;
24034;SDS011;12242;50.952;4.678;2022-08-03T01:52:23;574.50;;;532.97;;
24034;SDS011;12242;50.952;4.678;2022-08-03T01:54:54;597.70;;;554.63;;
24034;SDS011;12242;50.952;4.678;2022-08-03T01:57:26;590.35;;;547.58;;
24034;SDS011;12242;50.952;4.678;2022-08-03T01:59:58;585.38;;;543.58;;
24034;SDS011;12242;50.952;4.678;2022-08-03T02:02:27;588.28;;;547.17;;
24034;SDS011;12242;50.952;4.678;2022-08-03T02:05:00;596.17;;;553.78;;
24034;SDS011;12242;50.952;4.678;2022-08-03T02:07:36;622.58;;;578.70;;
24034;SDS011;12242;50.952;4.678;2022-08-03T02:10:06;618.53;;;575.50;;
24034;SDS011;12242;50.952;4.678;2022-08-03T02:12:35;586.05;;;545.28;;
24034;SDS011;12242;50.952;4.678;2022-08-03T02:15:04;600.40;;;556.95;;
24034;SDS011;12242;50.952;4.678;2022-08-03T02:17:33;584.35;;;543.15;;
24034;SDS011;12242;50.952;4.678;2022-08-03T02:20:09;602.57;;;559.83;;
24034;SDS011;12242;50.952;4.678;2022-08-03T02:22:41;630.00;;;585.35;;
24034;SDS011;12242;50.952;4.678;2022-08-03T02:25:11;578.83;;;538.28;;
24034;SDS011;12242;50.952;4.678;2022-08-03T02:27:42;597.97;;;556.55;;
24034;SDS011;12242;50.952;4.678;2022-08-03T02:30:16;589.35;;;548.75;;
24034;SDS011;12242;50.952;4.678;2022-08-03T02:32:47;600.60;;;558.50;;
24034;SDS011;12242;50.952;4.678;2022-08-03T02:35:22;588.03;;;546.92;;
24034;SDS011;12242;50.952;4.678;2022-08-03T02:37:55;578.43;;;538.50;;
24034;SDS011;12242;50.952;4.678;2022-08-03T02:40:27;567.80;;;527.50;;
24034;SDS011;12242;50.952;4.678;2022-08-03T02:42:58;559.85;;;519.75;;
24034;SDS011;12242;50.952;4.678;2022-08-03T02:45:29;569.00;;;528.08;;
24034;SDS011;12242;50.952;4.678;2022-08-03T02:48:03;578.55;;;537.83;;
24034;SDS011;12242;50.952;4.678;2022-08-03T02:50:32;578.15;;;537.53;;
24034;SDS011;12242;50.952;4.678;2022-08-03T02:53:02;548.50;;;509.17;;
24034;SDS011;12242;50.952;4.678;2022-08-03T02:55:30;543.80;;;504.85;;
24034;SDS011;12242;50.952;4.678;2022-08-03T02:58:00;541.00;;;501.98;;
24034;SDS011;12242;50.952;4.678;2022-08-03T03:00:32;579.50;;;538.55;;
24034;SDS011;12242;50.952;4.678;2022-08-03T03:03:00;556.13;;;517.10;;
24034;SDS011;12242;50.952;4.678;2022-08-03T03:05:29;562.08;;;520.90;;
24034;SDS011;12242;50.952;4.678;2022-08-03T03:08:18;555.60;;;515.83;;
24034;SDS011;12242;50.952;4.678;2022-08-03T03:10:52;572.15;;;531.95;;
24034;SDS011;12242;50.952;4.678;2022-08-03T03:13:27;552.53;;;513.78;;
24034;SDS011;12242;50.952;4.678;2022-08-03T03:15:56;545.53;;;507.58;;
24034;SDS011;12242;50.952;4.678;2022-08-03T03:18:27;575.65;;;535.85;;
24034;SDS011;12242;50.952;4.678;2022-08-03T03:20:56;570.58;;;530.30;;
24034;SDS011;12242;50.952;4.678;2022-08-03T03:23:26;581.90;;;541.33;;
24034;SDS011;12242;50.952;4.678;2022-08-03T03:28:30;544.92;;;506.10;;
24034;SDS011;12242;50.952;4.678;2022-08-03T03:30:58;533.92;;;495.70;;
24034;SDS011;12242;50.952;4.678;2022-08-03T03:33:29;539.38;;;502.02;;
24034;SDS011;12242;50.952;4.678;2022-08-03T03:35:57;584.05;;;543.10;;
24034;SDS011;12242;50.952;4.678;2022-08-03T03:38:24;564.65;;;525.28;;
24034;SDS011;12242;50.952;4.678;2022-08-03T03:40:52;565.13;;;524.83;;
24034;SDS011;12242;50.952;4.678;2022-08-03T03:43:23;576.63;;;536.63;;
24034;SDS011;12242;50.952;4.678;2022-08-03T03:45:50;587.28;;;546.70;;
24034;SDS011;12242;50.952;4.678;2022-08-03T03:48:21;550.83;;;513.40;;
24034;SDS011;12242;50.952;4.678;2022-08-03T03:50:50;578.92;;;539.20;;
24034;SDS011;12242;50.952;4.678;2022-08-03T03:53:18;572.33;;;533.42;;
24034;SDS011;12242;50.952;4.678;2022-08-03T03:55:46;586.25;;;545.50;;
24034;SDS011;12242;50.952;4.678;2022-08-03T03:58:28;541.78;;;504.67;;
24034;SDS011;12242;50.952;4.678;2022-08-03T04:00:59;593.88;;;553.05;;
24034;SDS011;12242;50.952;4.678;2022-08-03T04:03:29;590.97;;;549.90;;
24034;SDS011;12242;50.952;4.678;2022-08-03T04:05:59;579.90;;;540.40;;
24034;SDS011;12242;50.952;4.678;2022-08-03T04:08:45;573.00;;;533.53;;
24034;SDS011;12242;50.952;4.678;2022-08-03T04:11:29;572.60;;;533.22;;
24034;SDS011;12242;50.952;4.678;2022-08-03T04:14:15;563.88;;;524.53;;
24034;SDS011;12242;50.952;4.678;2022-08-03T04:17:03;554.72;;;516.55;;
24034;SDS011;12242;50.952;4.678;2022-08-03T04:22:05;578.17;;;538.35;;
24034;SDS011;12242;50.952;4.678;2022-08-03T04:24:43;532.63;;;495.80;;
24034;SDS011;12242;50.952;4.678;2022-08-03T04:27:17;539.10;;;501.27;;
24034;SDS011;12242;50.952;4.678;2022-08-03T04:29:51;569.33;;;530.17;;
24034;SDS011;12242;50.952;4.678;2022-08-03T04:32:21;585.38;;;545.30;;
24034;SDS011;12242;50.952;4.678;2022-08-03T04:34:54;586.15;;;545.88;;
24034;SDS011;12242;50.952;4.678;2022-08-03T04:40:38;577.97;;;538.20;;
24034;SDS011;12242;50.952;4.678;2022-08-03T04:43:07;559.50;;;521.50;;
24034;SDS011;12242;50.952;4.678;2022-08-03T04:45:38;601.70;;;560.35;;
24034;SDS011;12242;50.952;4.678;2022-08-03T04:48:10;578.67;;;538.40;;
24034;SDS011;12242;50.952;4.678;2022-08-03T04:50:39;543.53;;;506.17;;
24034;SDS011;12242;50.952;4.678;2022-08-03T04:53:10;572.78;;;533.10;;
24034;SDS011;12242;50.952;4.678;2022-08-03T04:55:40;563.35;;;524.33;;
24034;SDS011;12242;50.952;4.678;2022-08-03T04:58:08;586.45;;;546.92;;
24034;SDS011;12242;50.952;4.678;2022-08-03T05:00:35;606.05;;;565.15;;
24034;SDS011;12242;50.952;4.678;2022-08-03T05:03:02;597.53;;;556.80;;
24034;SDS011;12242;50.952;4.678;2022-08-03T05:05:53;629.53;;;586.40;;
24034;SDS011;12242;50.952;4.678;2022-08-03T05:08:39;595.13;;;554.58;;
24034;SDS011;12242;50.952;4.678;2022-08-03T05:11:13;601.83;;;560.13;;
24034;SDS011;12242;50.952;4.678;2022-08-03T05:13:43;608.92;;;566.58;;
24034;SDS011;12242;50.952;4.678;2022-08-03T05:16:11;583.50;;;543.33;;
24034;SDS011;12242;50.952;4.678;2022-08-03T05:18:40;576.70;;;537.03;;
24034;SDS011;12242;50.952;4.678;2022-08-03T05:21:08;590.45;;;549.63;;
24034;SDS011;12242;50.952;4.678;2022-08-03T05:23:39;585.45;;;545.55;;
24034;SDS011;12242;50.952;4.678;2022-08-03T05:26:07;587.08;;;546.50;;
24034;SDS011;12242;50.952;4.678;2022-08-03T05:28:34;563.97;;;525.40;;
24034;SDS011;12242;50.952;4.678;2022-08-03T05:31:04;581.85;;;541.42;;
24034;SDS011;12242;50.952;4.678;2022-08-03T05:33:32;558.60;;;519.92;;
24034;SDS011;12242;50.952;4.678;2022-08-03T05:36:00;536.78;;;500.20;;
24034;SDS011;12242;50.952;4.678;2022-08-03T05:38:30;552.97;;;514.13;;
24034;SDS011;12242;50.952;4.678;2022-08-03T05:41:01;558.30;;;519.28;;
24034;SDS011;12242;50.952;4.678;2022-08-03T05:43:55;563.70;;;523.35;;
24034;SDS011;12242;50.952;4.678;2022-08-03T05:46:22;576.72;;;534.83;;
24034;SDS011;12242;50.952;4.678;2022-08-03T05:48:50;597.03;;;553.60;;
24034;SDS011;12242;50.952;4.678;2022-08-03T05:51:18;586.75;;;543.88;;
24034;SDS011;12242;50.952;4.678;2022-08-03T05:53:48;584.17;;;540.58;;
24034;SDS011;12242;50.952;4.678;2022-08-03T05:56:15;569.30;;;527.38;;
24034;SDS011;12242;50.952;4.678;2022-08-03T05:58:43;570.40;;;527.92;;
24034;SDS011;12242;50.952;4.678;2022-08-03T06:01:13;596.20;;;551.72;;
24034;SDS011;12242;50.952;4.678;2022-08-03T06:03:43;580.22;;;536.47;;
24034;SDS011;12242;50.952;4.678;2022-08-03T06:06:11;578.05;;;534.63;;
24034;SDS011;12242;50.952;4.678;2022-08-03T06:08:46;577.87;;;535.57;;
24034;SDS011;12242;50.952;4.678;2022-08-03T06:11:14;579.58;;;535.78;;
24034;SDS011;12242;50.952;4.678;2022-08-03T06:13:44;580.33;;;537.05;;
24034;SDS011;12242;50.952;4.678;2022-08-03T06:16:13;603.60;;;557.90;;
24034;SDS011;12242;50.952;4.678;2022-08-03T06:18:41;626.78;;;578.00;;
24034;SDS011;12242;50.952;4.678;2022-08-03T06:21:09;598.58;;;553.88;;
24034;SDS011;12242;50.952;4.678;2022-08-03T06:23:41;618.38;;;570.65;;
24034;SDS011;12242;50.952;4.678;2022-08-03T06:26:21;597.85;;;552.92;;
24034;SDS011;12242;50.952;4.678;2022-08-03T06:28:56;599.40;;;553.90;;
24034;SDS011;12242;50.952;4.678;2022-08-03T06:31:29;581.47;;;538.75;;
24034;SDS011;12242;50.952;4.678;2022-08-03T06:34:00;607.55;;;561.47;;
24034;SDS011;12242;50.952;4.678;2022-08-03T06:36:50;585.60;;;542.13;;
24034;SDS011;12242;50.952;4.678;2022-08-03T06:39:19;588.15;;;544.40;;
24034;SDS011;12242;50.952;4.678;2022-08-03T06:41:51;582.65;;;539.55;;
24034;SDS011;12242;50.952;4.678;2022-08-03T06:44:21;592.67;;;548.65;;
24034;SDS011;12242;50.952;4.678;2022-08-03T06:46:48;584.45;;;539.83;;
24034;SDS011;12242;50.952;4.678;2022-08-03T06:49:16;532.13;;;493.55;;
24034;SDS011;12242;50.952;4.678;2022-08-03T06:51:45;514.13;;;477.63;;
24034;SDS011;12242;50.952;4.678;2022-08-03T06:54:32;527.50;;;490.30;;
24034;SDS011;12242;50.952;4.678;2022-08-03T06:56:59;487.88;;;453.63;;
24034;SDS011;12242;50.952;4.678;2022-08-03T06:59:27;511.60;;;475.48;;
24034;SDS011;12242;50.952;4.678;2022-08-03T07:02:16;451.10;;;420.00;;
24034;SDS011;12242;50.952;4.678;2022-08-03T07:04:47;434.88;;;404.77;;
24034;SDS011;12242;50.952;4.678;2022-08-03T07:07:17;476.02;;;442.42;;
24034;SDS011;12242;50.952;4.678;2022-08-03T07:09:46;455.83;;;422.80;;
24034;SDS011;12242;50.952;4.678;2022-08-03T07:12:24;471.30;;;437.60;;
24034;SDS011;12242;50.952;4.678;2022-08-03T07:14:52;485.55;;;451.10;;
24034;SDS011;12242;50.952;4.678;2022-08-03T07:17:27;468.38;;;435.10;;
24034;SDS011;12242;50.952;4.678;2022-08-03T07:19:58;432.98;;;401.83;;
24034;SDS011;12242;50.952;4.678;2022-08-03T07:22:26;442.67;;;409.27;;
24034;SDS011;12242;50.952;4.678;2022-08-03T07:24:56;387.58;;;359.38;;
24034;SDS011;12242;50.952;4.678;2022-08-03T07:27:24;418.42;;;386.75;;
24034;SDS011;12242;50.952;4.678;2022-08-03T07:29:53;441.30;;;407.73;;
24034;SDS011;12242;50.952;4.678;2022-08-03T07:32:21;413.20;;;380.23;;
24034;SDS011;12242;50.952;4.678;2022-08-03T07:34:49;421.45;;;388.00;;
24034;SDS011;12242;50.952;4.678;2022-08-03T07:37:26;395.52;;;363.65;;
24034;SDS011;12242;50.952;4.678;2022-08-03T07:39:54;398.80;;;367.13;;
24034;SDS011;12242;50.952;4.678;2022-08-03T07:42:22;411.67;;;378.63;;
24034;SDS011;12242;50.952;4.678;2022-08-03T07:44:49;408.42;;;374.67;;
24034;SDS011;12242;50.952;4.678;2022-08-03T07:47:17;474.95;;;433.80;;
24034;SDS011;12242;50.952;4.678;2022-08-03T07:50:02;548.05;;;500.50;;
24034;SDS011;12242;50.952;4.678;2022-08-03T07:52:30;556.40;;;506.85;;
24034;SDS011;12242;50.952;4.678;2022-08-03T07:55:14;558.27;;;508.70;;
24034;SDS011;12242;50.952;4.678;2022-08-03T07:57:42;553.65;;;504.63;;
24034;SDS011;12242;50.952;4.678;2022-08-03T08:00:20;554.38;;;505.73;;
24034;SDS011;12242;50.952;4.678;2022-08-03T08:02:48;537.92;;;490.35;;
24034;SDS011;12242;50.952;4.678;2022-08-03T08:05:18;536.80;;;491.77;;
24034;SDS011;12242;50.952;4.678;2022-08-03T08:07:48;517.03;;;473.75;;
24034;SDS011;12242;50.952;4.678;2022-08-03T08:10:17;508.80;;;465.90;;
24034;SDS011;12242;50.952;4.678;2022-08-03T08:12:45;526.80;;;482.98;;
24034;SDS011;12242;50.952;4.678;2022-08-03T08:15:13;513.13;;;470.25;;
24034;SDS011;12242;50.952;4.678;2022-08-03T08:17:42;508.80;;;466.17;;
24034;SDS011;12242;50.952;4.678;2022-08-03T08:20:17;513.55;;;469.98;;
24034;SDS011;12242;50.952;4.678;2022-08-03T08:22:57;519.95;;;475.27;;
24034;SDS011;12242;50.952;4.678;2022-08-03T08:25:39;539.65;;;491.88;;
24034;SDS011;12242;50.952;4.678;2022-08-03T08:28:07;525.13;;;479.52;;
24034;SDS011;12242;50.952;4.678;2022-08-03T08:30:54;500.20;;;456.83;;
24034;SDS011;12242;50.952;4.678;2022-08-03T08:33:21;514.95;;;469.13;;
24034;SDS011;12242;50.952;4.678;2022-08-03T08:35:51;521.35;;;475.10;;
24034;SDS011;12242;50.952;4.678;2022-08-03T08:38:20;537.72;;;490.70;;
24034;SDS011;12242;50.952;4.678;2022-08-03T08:40:48;525.05;;;479.25;;
24034;SDS011;12242;50.952;4.678;2022-08-03T08:43:16;539.30;;;492.77;;
24034;SDS011;12242;50.952;4.678;2022-08-03T08:45:46;541.20;;;495.80;;
24034;SDS011;12242;50.952;4.678;2022-08-03T08:48:21;521.55;;;476.40;;
24034;SDS011;12242;50.952;4.678;2022-08-03T08:50:56;530.85;;;486.25;;
24034;SDS011;12242;50.952;4.678;2022-08-03T08:53:27;525.85;;;482.50;;
24034;SDS011;12242;50.952;4.678;2022-08-03T08:55:59;515.38;;;473.42;;
24034;SDS011;12242;50.952;4.678;2022-08-03T08:58:34;515.00;;;474.05;;
24034;SDS011;12242;50.952;4.678;2022-08-03T09:01:04;510.80;;;469.75;;
24034;SDS011;12242;50.952;4.678;2022-08-03T09:03:36;522.28;;;480.92;;
24034;SDS011;12242;50.952;4.678;2022-08-03T09:06:04;515.63;;;474.85;;
24034;SDS011;12242;50.952;4.678;2022-08-03T09:08:32;520.20;;;479.08;;
24034;SDS011;12242;50.952;4.678;2022-08-03T09:10:59;532.38;;;489.88;;
24034;SDS011;12242;50.952;4.678;2022-08-03T09:13:27;511.25;;;470.98;;
24034;SDS011;12242;50.952;4.678;2022-08-03T09:18:47;519.60;;;478.55;;
24034;SDS011;12242;50.952;4.678;2022-08-03T09:21:27;525.05;;;484.08;;
24034;SDS011;12242;50.952;4.678;2022-08-03T09:24:00;519.75;;;478.63;;
24034;SDS011;12242;50.952;4.678;2022-08-03T09:26:32;510.83;;;470.80;;
24034;SDS011;12242;50.952;4.678;2022-08-03T09:29:06;524.35;;;482.80;;
24034;SDS011;12242;50.952;4.678;2022-08-03T09:31:44;527.65;;;486.13;;
24034;SDS011;12242;50.952;4.678;2022-08-03T09:34:13;522.90;;;481.77;;
24034;SDS011;12242;50.952;4.678;2022-08-03T09:36:43;518.72;;;478.15;;
24034;SDS011;12242;50.952;4.678;2022-08-03T09:39:14;521.65;;;480.45;;
24034;SDS011;12242;50.952;4.678;2022-08-03T09:44:50;530.17;;;488.52;;
24034;SDS011;12242;50.952;4.678;2022-08-03T09:47:28;525.15;;;483.60;;
24034;SDS011;12242;50.952;4.678;2022-08-03T09:49:58;494.73;;;456.20;;
24034;SDS011;12242;50.952;4.678;2022-08-03T09:52:34;501.50;;;462.25;;
24034;SDS011;12242;50.952;4.678;2022-08-03T09:55:18;506.70;;;467.48;;
24034;SDS011;12242;50.952;4.678;2022-08-03T09:58:10;509.75;;;470.40;;
24034;SDS011;12242;50.952;4.678;2022-08-03T10:00:51;482.98;;;446.30;;
24034;SDS011;12242;50.952;4.678;2022-08-03T10:03:35;470.48;;;434.92;;
24034;SDS011;12242;50.952;4.678;2022-08-03T10:06:25;472.27;;;436.33;;
24034;SDS011;12242;50.952;4.678;2022-08-03T10:11:38;462.98;;;427.73;;
24034;SDS011;12242;50.952;4.678;2022-08-03T10:14:09;484.58;;;447.20;;
24034;SDS011;12242;50.952;4.678;2022-08-03T10:16:45;448.73;;;414.88;;
24034;SDS011;12242;50.952;4.678;2022-08-03T10:19:14;441.60;;;407.92;;
24034;SDS011;12242;50.952;4.678;2022-08-03T10:21:45;454.98;;;419.70;;
24034;SDS011;12242;50.952;4.678;2022-08-03T10:24:23;431.67;;;399.02;;
24034;SDS011;12242;50.952;4.678;2022-08-03T10:26:56;421.45;;;390.50;;
24034;SDS011;12242;50.952;4.678;2022-08-03T10:29:37;438.20;;;405.25;;
24034;SDS011;12242;50.952;4.678;2022-08-03T10:32:21;457.87;;;422.17;;
24034;SDS011;12242;50.952;4.678;2022-08-03T10:35:10;423.17;;;391.67;;
24034;SDS011;12242;50.952;4.678;2022-08-03T10:37:57;430.60;;;397.80;;
24034;SDS011;12242;50.952;4.678;2022-08-03T10:40:30;425.17;;;392.95;;
24034;SDS011;12242;50.952;4.678;2022-08-03T10:43:25;431.55;;;398.70;;
24034;SDS011;12242;50.952;4.678;2022-08-03T10:45:58;423.40;;;391.98;;
24034;SDS011;12242;50.952;4.678;2022-08-03T10:48:27;453.70;;;419.58;;
24034;SDS011;12242;50.952;4.678;2022-08-03T10:50:55;431.50;;;399.10;;
24034;SDS011;12242;50.952;4.678;2022-08-03T10:56:04;442.70;;;408.65;;
24034;SDS011;12242;50.952;4.678;2022-08-03T10:59:10;449.65;;;415.33;;
24034;SDS011;12242;50.952;4.678;2022-08-03T11:01:50;446.00;;;411.83;;
24034;SDS011;12242;50.952;4.678;2022-08-03T11:04:28;454.50;;;418.33;;
24034;SDS011;12242;50.952;4.678;2022-08-03T11:07:41;441.52;;;406.85;;
24034;SDS011;12242;50.952;4.678;2022-08-03T11:09:53;437.63;;;403.50;;
24034;SDS011;12242;50.952;4.678;2022-08-03T11:12:26;431.98;;;398.73;;
24034;SDS011;12242;50.952;4.678;2022-08-03T11:15:01;458.90;;;422.05;;
24034;SDS011;12242;50.952;4.678;2022-08-03T11:17:32;429.60;;;395.88;;
24034;SDS011;12242;50.952;4.678;2022-08-03T11:26:32;437.42;;;401.63;;
24034;SDS011;12242;50.952;4.678;2022-08-03T11:31:55;432.48;;;396.83;;
24034;SDS011;12242;50.952;4.678;2022-08-03T11:34:23;413.77;;;381.42;;
24034;SDS011;12242;50.952;4.678;2022-08-03T11:39:49;453.95;;;416.30;;
24034;SDS011;12242;50.952;4.678;2022-08-03T11:44:50;421.65;;;387.38;;
24034;SDS011;12242;50.952;4.678;2022-08-03T11:47:19;434.42;;;399.13;;
24034;SDS011;12242;50.952;4.678;2022-08-03T11:49:48;449.38;;;412.45;;
24034;SDS011;12242;50.952;4.678;2022-08-03T11:52:17;440.27;;;403.35;;
24034;SDS011;12242;50.952;4.678;2022-08-03T11:54:54;427.70;;;393.10;;
24034;SDS011;12242;50.952;4.678;2022-08-03T11:57:33;420.58;;;386.17;;
24034;SDS011;12242;50.952;4.678;2022-08-03T12:00:28;432.02;;;396.52;;
24034;SDS011;12242;50.952;4.678;2022-08-03T12:03:03;418.80;;;384.42;;
24034;SDS011;12242;50.952;4.678;2022-08-03T12:05:34;426.88;;;391.13;;
24034;SDS011;12242;50.952;4.678;2022-08-03T12:08:05;438.77;;;401.58;;
24034;SDS011;12242;50.952;4.678;2022-08-03T12:10:36;402.30;;;368.70;;
24034;SDS011;12242;50.952;4.678;2022-08-03T12:13:06;411.80;;;377.63;;
24034;SDS011;12242;50.952;4.678;2022-08-03T12:15:56;411.88;;;377.48;;
24034;SDS011;12242;50.952;4.678;2022-08-03T12:18:25;412.33;;;377.73;;
24034;SDS011;12242;50.952;4.678;2022-08-03T12:21:03;369.40;;;337.98;;
24034;SDS011;12242;50.952;4.678;2022-08-03T12:23:35;367.90;;;336.27;;
24034;SDS011;12242;50.952;4.678;2022-08-03T12:26:07;360.95;;;330.52;;
24034;SDS011;12242;50.952;4.678;2022-08-03T12:28:36;348.75;;;319.40;;
24034;SDS011;12242;50.952;4.678;2022-08-03T12:31:08;375.38;;;343.10;;
24034;SDS011;12242;50.952;4.678;2022-08-03T12:36:24;350.35;;;321.02;;
24034;SDS011;12242;50.952;4.678;2022-08-03T12:38:56;359.67;;;329.42;;
24034;SDS011;12242;50.952;4.678;2022-08-03T12:43:56;380.65;;;347.40;;
24034;SDS011;12242;50.952;4.678;2022-08-03T12:46:33;379.83;;;347.17;;
24034;SDS011;12242;50.952;4.678;2022-08-03T12:49:10;361.90;;;330.85;;
24034;SDS011;12242;50.952;4.678;2022-08-03T12:54:20;372.35;;;340.23;;
24034;SDS011;12242;50.952;4.678;2022-08-03T12:57:07;362.05;;;330.77;;
24034;SDS011;12242;50.952;4.678;2022-08-03T12:59:42;372.20;;;340.20;;
24034;SDS011;12242;50.952;4.678;2022-08-03T13:02:23;376.27;;;344.15;;
24034;SDS011;12242;50.952;4.678;2022-08-03T13:04:52;388.25;;;354.52;;
24034;SDS011;12242;50.952;4.678;2022-08-03T13:07:21;372.23;;;340.60;;
24034;SDS011;12242;50.952;4.678;2022-08-03T13:09:52;361.70;;;331.15;;
24034;SDS011;12242;50.952;4.678;2022-08-03T13:12:27;366.90;;;335.40;;
24034;SDS011;12242;50.952;4.678;2022-08-03T13:14:56;371.42;;;339.60;;
24034;SDS011;12242;50.952;4.678;2022-08-03T13:17:25;377.85;;;345.17;;
24034;SDS011;12242;50.952;4.678;2022-08-03T13:19:55;359.65;;;328.63;;
24034;SDS011;12242;50.952;4.678;2022-08-03T13:22:24;394.98;;;360.85;;
24034;SDS011;12242;50.952;4.678;2022-08-03T13:24:53;381.98;;;349.35;;
24034;SDS011;12242;50.952;4.678;2022-08-03T13:27:22;388.52;;;354.80;;
24034;SDS011;12242;50.952;4.678;2022-08-03T13:30:10;360.27;;;329.48;;
24034;SDS011;12242;50.952;4.678;2022-08-03T13:32:55;396.05;;;361.70;;
24034;SDS011;12242;50.952;4.678;2022-08-03T13:35:26;381.08;;;348.27;;
24034;SDS011;12242;50.952;4.678;2022-08-03T13:37:53;371.48;;;339.13;;
24034;SDS011;12242;50.952;4.678;2022-08-03T13:40:22;359.67;;;329.63;;
24034;SDS011;12242;50.952;4.678;2022-08-03T13:42:56;379.00;;;347.05;;
24034;SDS011;12242;50.952;4.678;2022-08-03T13:45:26;369.85;;;338.42;;
24034;SDS011;12242;50.952;4.678;2022-08-03T13:47:54;360.25;;;330.30;;
24034;SDS011;12242;50.952;4.678;2022-08-03T13:50:24;374.33;;;342.73;;
24034;SDS011;12242;50.952;4.678;2022-08-03T13:52:51;326.67;;;301.00;;
24034;SDS011;12242;50.952;4.678;2022-08-03T13:55:18;348.75;;;320.00;;
24034;SDS011;12242;50.952;4.678;2022-08-03T13:57:48;348.75;;;319.95;;
24034;SDS011;12242;50.952;4.678;2022-08-03T14:00:31;359.67;;;329.67;;
24034;SDS011;12242;50.952;4.678;2022-08-03T14:02:59;381.33;;;348.75;;
24034;SDS011;12242;50.952;4.678;2022-08-03T14:05:40;323.58;;;297.88;;
24034;SDS011;12242;50.952;4.678;2022-08-03T14:08:09;325.77;;;300.38;;
24034;SDS011;12242;50.952;4.678;2022-08-03T14:10:38;323.73;;;298.92;;
24034;SDS011;12242;50.952;4.678;2022-08-03T14:13:07;324.17;;;299.33;;
24034;SDS011;12242;50.952;4.678;2022-08-03T14:15:44;313.10;;;289.35;;
24034;SDS011;12242;50.952;4.678;2022-08-03T14:18:20;320.65;;;296.42;;
24034;SDS011;12242;50.952;4.678;2022-08-03T14:21:01;323.50;;;297.95;;
24034;SDS011;12242;50.952;4.678;2022-08-03T14:23:33;325.10;;;299.77;;
24034;SDS011;12242;50.952;4.678;2022-08-03T14:26:01;296.73;;;275.02;;
24034;SDS011;12242;50.952;4.678;2022-08-03T14:28:33;308.58;;;285.92;;
24034;SDS011;12242;50.952;4.678;2022-08-03T14:31:00;322.75;;;298.35;;
24034;SDS011;12242;50.952;4.678;2022-08-03T14:33:28;311.45;;;289.00;;
24034;SDS011;12242;50.952;4.678;2022-08-03T14:35:57;325.27;;;300.83;;
24034;SDS011;12242;50.952;4.678;2022-08-03T14:38:25;317.20;;;293.48;;
24034;SDS011;12242;50.952;4.678;2022-08-03T14:40:52;346.45;;;320.15;;
24034;SDS011;12242;50.952;4.678;2022-08-03T14:43:20;332.30;;;307.13;;
24034;SDS011;12242;50.952;4.678;2022-08-03T14:45:50;318.40;;;294.02;;
24034;SDS011;12242;50.952;4.678;2022-08-03T14:48:19;306.73;;;284.58;;
24034;SDS011;12242;50.952;4.678;2022-08-03T14:51:07;339.05;;;313.02;;
24034;SDS011;12242;50.952;4.678;2022-08-03T14:53:35;328.65;;;303.45;;
24034;SDS011;12242;50.952;4.678;2022-08-03T14:56:03;328.35;;;303.65;;
24034;SDS011;12242;50.952;4.678;2022-08-03T14:58:37;335.13;;;309.50;;
24034;SDS011;12242;50.952;4.678;2022-08-03T15:01:04;334.85;;;309.08;;
24034;SDS011;12242;50.952;4.678;2022-08-03T15:03:53;334.17;;;308.75;;
24034;SDS011;12242;50.952;4.678;2022-08-03T15:06:20;340.17;;;314.52;;
24034;SDS011;12242;50.952;4.678;2022-08-03T15:08:47;342.98;;;316.90;;
24034;SDS011;12242;50.952;4.678;2022-08-03T15:11:35;336.98;;;311.92;;
24034;SDS011;12242;50.952;4.678;2022-08-03T15:14:05;326.63;;;303.17;;
24034;SDS011;12242;50.952;4.678;2022-08-03T15:16:35;327.77;;;303.98;;
24034;SDS011;12242;50.952;4.678;2022-08-03T15:19:04;332.33;;;308.65;;
24034;SDS011;12242;50.952;4.678;2022-08-03T15:21:52;328.80;;;305.42;;
24034;SDS011;12242;50.952;4.678;2022-08-03T15:24:22;335.67;;;310.60;;
24034;SDS011;12242;50.952;4.678;2022-08-03T15:26:49;342.50;;;316.25;;